Jensen Beach, FL

04:39 AM EST del 29 novembre 2014 (GMT -0500)
Witham | Change Station
CLOSE
Current Station
Aeroporto
Location: Stuart,
Altitudine: 20 ft
Stazioni meteo nelle vicinanze

Alt. 20 ft 27.18 °N, 80.22 °W | Updated 24 minutes ago

Parzialmente nuvoloso
Parzialmente nuvoloso
52 °F
Sembra 52 °F
N
5
Vento Variabile Vento da NO

Oggi
Massima -- | Minima -- °F
--% Possibilità di precip.
Ieri
Massima -- | Minima -- °F
Precip. -- in
6:51 AM 5:26 PM
Luna crescente, 50% visible
Pressione 30.21 in
Visibilità 10.0 miglia
Nuvole Molto nuvoloso 4400 ft
Molto nuvoloso 5000 ft
Punto di rugiada 50 °F
Umidità 94%
Piovosità 0.00 in
Spessore del manto nevoso Non disponibile.
Raggi UV 0 fuori da 12
Polline 4.60 fuori da 12
Qualità dell'aria Non disponibile.
Flu Activity Non disponibile.
METAR KSUA 290915Z AUTO 31004KT 10SM BKN044 BKN050 11/10 A3021 RMK AO2

More Conditions Fewer Conditions

Pressione 30.21 in
Visibilità 10.0 miglia
Nuvole Molto nuvoloso 4400 ft
Molto nuvoloso 5000 ft
Punto di rugiada 50 °F
Umidità 94%
Piovosità 0.00 in
Spessore del manto nevoso Non disponibile.
Raggi UV 0 fuori da 12
Polline 4.60 fuori da 12
Qualità dell'aria Non disponibile.
Flu Activity Non disponibile.
METAR KSUA 290915Z AUTO 31004KT 10SM BKN044 BKN050 11/10 A3021 RMK AO2

More Conditions Fewer Conditions

10-Day Weather Forecast

Almanac

Astronomia

Nov. 29, 2014 Alba Tramonto
Ora attuale
Crepuscolo civile
Crepuscolo nautico
Crepuscolo astronomico
Luna
Estensione della luce visibile
Lunghezza del giorno
Tomorrow will be .
, % of the Moon is Illuminated

Gli estremi di oggi

State Highs State Lows

Community

WunderPhotos

Upload Photos

1,774,442 foto caricate!

WunderBlogs® & News

Nearby

Qualità dell'aria

  Qualità dell'aria Indice AQ Inquinante
Not available.

Profondità neve

Stazione Profondità Altitudine

Attività sismica

Città  Distanza Mag. Data & Ora
Minimo Magnitudo Mostrato è 2.5.

Temperature delle acque costiere

Località Temperatura

Stazioni meteo nelle vicinanze